sensor_id;sensor_type;location;lat;lon;timestamp;P1;durP1;ratioP1;P2;durP2;ratioP2
13597;SDS011;38563;54.258;12.574;2023-02-16T00:01:18;0.00;;;0.00;;
13597;SDS011;38563;54.258;12.574;2023-02-16T00:03:48;0.00;;;0.00;;
13597;SDS011;38563;54.258;12.574;2023-02-16T00:06:16;0.00;;;0.00;;
13597;SDS011;38563;54.258;12.574;2023-02-16T00:08:44;0.10;;;0.10;;
13597;SDS011;38563;54.258;12.574;2023-02-16T00:11:19;0.00;;;0.00;;
13597;SDS011;38563;54.258;12.574;2023-02-16T00:14:07;0.10;;;0.10;;
13597;SDS011;38563;54.258;12.574;2023-02-16T00:16:36;0.10;;;0.10;;
13597;SDS011;38563;54.258;12.574;2023-02-16T00:21:53;0.10;;;0.10;;
13597;SDS011;38563;54.258;12.574;2023-02-16T00:24:22;0.10;;;0.00;;
13597;SDS011;38563;54.258;12.574;2023-02-16T00:26:51;0.20;;;0.20;;
13597;SDS011;38563;54.258;12.574;2023-02-16T00:29:19;0.10;;;0.10;;
13597;SDS011;38563;54.258;12.574;2023-02-16T00:31:49;0.30;;;0.30;;
13597;SDS011;38563;54.258;12.574;2023-02-16T00:34:23;0.20;;;0.20;;
13597;SDS011;38563;54.258;12.574;2023-02-16T00:36:54;0.17;;;0.17;;
13597;SDS011;38563;54.258;12.574;2023-02-16T00:39:21;0.10;;;0.10;;
13597;SDS011;38563;54.258;12.574;2023-02-16T00:41:51;0.53;;;0.40;;
13597;SDS011;38563;54.258;12.574;2023-02-16T00:44:19;0.40;;;0.30;;
13597;SDS011;38563;54.258;12.574;2023-02-16T00:46:51;0.13;;;0.13;;
13597;SDS011;38563;54.258;12.574;2023-02-16T00:49:19;0.17;;;0.10;;
13597;SDS011;38563;54.258;12.574;2023-02-16T00:51:48;0.10;;;0.10;;
13597;SDS011;38563;54.258;12.574;2023-02-16T00:54:15;0.20;;;0.20;;
13597;SDS011;38563;54.258;12.574;2023-02-16T00:56:42;0.20;;;0.20;;
13597;SDS011;38563;54.258;12.574;2023-02-16T00:59:12;0.10;;;0.10;;
13597;SDS011;38563;54.258;12.574;2023-02-16T01:01:41;0.10;;;0.10;;
13597;SDS011;38563;54.258;12.574;2023-02-16T01:04:09;0.40;;;0.23;;
13597;SDS011;38563;54.258;12.574;2023-02-16T01:06:43;0.23;;;0.23;;
13597;SDS011;38563;54.258;12.574;2023-02-16T01:09:28;0.20;;;0.20;;
13597;SDS011;38563;54.258;12.574;2023-02-16T01:12:14;0.10;;;0.10;;
13597;SDS011;38563;54.258;12.574;2023-02-16T01:14:42;0.10;;;0.10;;
13597;SDS011;38563;54.258;12.574;2023-02-16T01:17:12;0.30;;;0.30;;
13597;SDS011;38563;54.258;12.574;2023-02-16T01:19:39;0.10;;;0.10;;
13597;SDS011;38563;54.258;12.574;2023-02-16T01:22:06;0.10;;;0.10;;
13597;SDS011;38563;54.258;12.574;2023-02-16T01:24:35;0.13;;;0.10;;
13597;SDS011;38563;54.258;12.574;2023-02-16T01:27:01;0.00;;;0.00;;
13597;SDS011;38563;54.258;12.574;2023-02-16T01:29:29;0.23;;;0.23;;
13597;SDS011;38563;54.258;12.574;2023-02-16T01:31:55;0.10;;;0.03;;
13597;SDS011;38563;54.258;12.574;2023-02-16T01:34:22;0.20;;;0.20;;
13597;SDS011;38563;54.258;12.574;2023-02-16T01:36:49;0.20;;;0.20;;
13597;SDS011;38563;54.258;12.574;2023-02-16T01:39:17;0.27;;;0.27;;
13597;SDS011;38563;54.258;12.574;2023-02-16T01:41:55;0.20;;;0.20;;
13597;SDS011;38563;54.258;12.574;2023-02-16T01:44:28;0.20;;;0.20;;
13597;SDS011;38563;54.258;12.574;2023-02-16T01:47:00;0.00;;;0.00;;
13597;SDS011;38563;54.258;12.574;2023-02-16T01:49:30;0.10;;;0.10;;
13597;SDS011;38563;54.258;12.574;2023-02-16T01:51:57;0.10;;;0.00;;
13597;SDS011;38563;54.258;12.574;2023-02-16T01:54:32;0.10;;;0.00;;
13597;SDS011;38563;54.258;12.574;2023-02-16T01:57:08;0.00;;;0.00;;
13597;SDS011;38563;54.258;12.574;2023-02-16T02:00:04;0.00;;;0.00;;
13597;SDS011;38563;54.258;12.574;2023-02-16T02:02:43;0.00;;;0.00;;
13597;SDS011;38563;54.258;12.574;2023-02-16T02:05:22;0.00;;;0.00;;
13597;SDS011;38563;54.258;12.574;2023-02-16T02:08:09;0.00;;;0.00;;
13597;SDS011;38563;54.258;12.574;2023-02-16T02:10:44;0.00;;;0.00;;
13597;SDS011;38563;54.258;12.574;2023-02-16T02:13:23;0.00;;;0.00;;
13597;SDS011;38563;54.258;12.574;2023-02-16T02:15:54;0.00;;;0.00;;
13597;SDS011;38563;54.258;12.574;2023-02-16T02:18:24;0.00;;;0.00;;
13597;SDS011;38563;54.258;12.574;2023-02-16T02:20:56;0.00;;;0.00;;
13597;SDS011;38563;54.258;12.574;2023-02-16T02:24:13;0.00;;;0.00;;
13597;SDS011;38563;54.258;12.574;2023-02-16T02:27:10;0.00;;;0.00;;
13597;SDS011;38563;54.258;12.574;2023-02-16T02:29:59;0.00;;;0.00;;
13597;SDS011;38563;54.258;12.574;2023-02-16T02:35:36;0.00;;;0.00;;
13597;SDS011;38563;54.258;12.574;2023-02-16T02:38:14;0.00;;;0.00;;
13597;SDS011;38563;54.258;12.574;2023-02-16T02:40:51;0.00;;;0.00;;
13597;SDS011;38563;54.258;12.574;2023-02-16T02:43:27;0.00;;;0.00;;
13597;SDS011;38563;54.258;12.574;2023-02-16T02:46:01;0.00;;;0.00;;
13597;SDS011;38563;54.258;12.574;2023-02-16T02:48:34;0.00;;;0.00;;
13597;SDS011;38563;54.258;12.574;2023-02-16T02:51:02;0.00;;;0.00;;
13597;SDS011;38563;54.258;12.574;2023-02-16T02:53:55;0.00;;;0.00;;
13597;SDS011;38563;54.258;12.574;2023-02-16T02:56:42;0.00;;;0.00;;
13597;SDS011;38563;54.258;12.574;2023-02-16T02:59:32;0.00;;;0.00;;
13597;SDS011;38563;54.258;12.574;2023-02-16T03:02:18;0.00;;;0.00;;
13597;SDS011;38563;54.258;12.574;2023-02-16T03:04:48;0.00;;;0.00;;
13597;SDS011;38563;54.258;12.574;2023-02-16T03:07:16;0.00;;;0.00;;
13597;SDS011;38563;54.258;12.574;2023-02-16T03:09:43;0.00;;;0.00;;
13597;SDS011;38563;54.258;12.574;2023-02-16T03:12:10;0.00;;;0.00;;
13597;SDS011;38563;54.258;12.574;2023-02-16T03:14:57;0.00;;;0.00;;
13597;SDS011;38563;54.258;12.574;2023-02-16T03:17:30;0.00;;;0.00;;
13597;SDS011;38563;54.258;12.574;2023-02-16T03:20:17;0.00;;;0.00;;
13597;SDS011;38563;54.258;12.574;2023-02-16T03:23:02;0.00;;;0.00;;
13597;SDS011;38563;54.258;12.574;2023-02-16T03:25:49;0.00;;;0.00;;
13597;SDS011;38563;54.258;12.574;2023-02-16T03:28:36;0.00;;;0.00;;
13597;SDS011;38563;54.258;12.574;2023-02-16T03:31:26;0.00;;;0.00;;
13597;SDS011;38563;54.258;12.574;2023-02-16T03:33:55;0.00;;;0.00;;
13597;SDS011;38563;54.258;12.574;2023-02-16T03:36:23;0.00;;;0.00;;
13597;SDS011;38563;54.258;12.574;2023-02-16T03:38:52;0.00;;;0.00;;
13597;SDS011;38563;54.258;12.574;2023-02-16T03:41:21;0.00;;;0.00;;
13597;SDS011;38563;54.258;12.574;2023-02-16T03:43:48;0.00;;;0.00;;
13597;SDS011;38563;54.258;12.574;2023-02-16T03:46:14;0.00;;;0.00;;
13597;SDS011;38563;54.258;12.574;2023-02-16T03:48:43;0.00;;;0.00;;
13597;SDS011;38563;54.258;12.574;2023-02-16T03:51:10;0.00;;;0.00;;
13597;SDS011;38563;54.258;12.574;2023-02-16T03:53:37;0.00;;;0.00;;
13597;SDS011;38563;54.258;12.574;2023-02-16T03:56:03;0.00;;;0.00;;
13597;SDS011;38563;54.258;12.574;2023-02-16T03:58:31;0.00;;;0.00;;
13597;SDS011;38563;54.258;12.574;2023-02-16T04:00:58;0.00;;;0.00;;
13597;SDS011;38563;54.258;12.574;2023-02-16T04:03:25;0.00;;;0.00;;
13597;SDS011;38563;54.258;12.574;2023-02-16T04:05:53;0.00;;;0.00;;
13597;SDS011;38563;54.258;12.574;2023-02-16T04:08:20;0.00;;;0.00;;
13597;SDS011;38563;54.258;12.574;2023-02-16T04:10:47;0.00;;;0.00;;
13597;SDS011;38563;54.258;12.574;2023-02-16T04:13:14;0.00;;;0.00;;
13597;SDS011;38563;54.258;12.574;2023-02-16T04:15:40;0.00;;;0.00;;
13597;SDS011;38563;54.258;12.574;2023-02-16T04:18:06;0.00;;;0.00;;
13597;SDS011;38563;54.258;12.574;2023-02-16T04:20:34;0.00;;;0.00;;
13597;SDS011;38563;54.258;12.574;2023-02-16T04:23:02;0.00;;;0.00;;
13597;SDS011;38563;54.258;12.574;2023-02-16T04:25:29;0.00;;;0.00;;
13597;SDS011;38563;54.258;12.574;2023-02-16T04:27:56;0.00;;;0.00;;
13597;SDS011;38563;54.258;12.574;2023-02-16T04:30:24;0.00;;;0.00;;
13597;SDS011;38563;54.258;12.574;2023-02-16T04:32:52;0.00;;;0.00;;
13597;SDS011;38563;54.258;12.574;2023-02-16T04:35:19;0.00;;;0.00;;
13597;SDS011;38563;54.258;12.574;2023-02-16T04:37:47;0.00;;;0.00;;
13597;SDS011;38563;54.258;12.574;2023-02-16T04:40:15;0.00;;;0.00;;
13597;SDS011;38563;54.258;12.574;2023-02-16T04:42:43;0.00;;;0.00;;
13597;SDS011;38563;54.258;12.574;2023-02-16T04:45:10;0.00;;;0.00;;
13597;SDS011;38563;54.258;12.574;2023-02-16T04:47:37;0.00;;;0.00;;
13597;SDS011;38563;54.258;12.574;2023-02-16T04:50:05;0.00;;;0.00;;
13597;SDS011;38563;54.258;12.574;2023-02-16T04:52:33;0.00;;;0.00;;
13597;SDS011;38563;54.258;12.574;2023-02-16T04:55:00;0.00;;;0.00;;
13597;SDS011;38563;54.258;12.574;2023-02-16T04:57:29;0.00;;;0.00;;
13597;SDS011;38563;54.258;12.574;2023-02-16T04:59:55;0.00;;;0.00;;
13597;SDS011;38563;54.258;12.574;2023-02-16T05:02:22;0.00;;;0.00;;
13597;SDS011;38563;54.258;12.574;2023-02-16T05:04:49;0.00;;;0.00;;
13597;SDS011;38563;54.258;12.574;2023-02-16T05:07:16;0.00;;;0.00;;
13597;SDS011;38563;54.258;12.574;2023-02-16T05:09:43;0.00;;;0.00;;
13597;SDS011;38563;54.258;12.574;2023-02-16T05:12:10;0.00;;;0.00;;
13597;SDS011;38563;54.258;12.574;2023-02-16T05:14:55;0.00;;;0.00;;
13597;SDS011;38563;54.258;12.574;2023-02-16T05:17:23;0.00;;;0.00;;
13597;SDS011;38563;54.258;12.574;2023-02-16T05:19:52;0.00;;;0.00;;
13597;SDS011;38563;54.258;12.574;2023-02-16T05:22:20;0.00;;;0.00;;
13597;SDS011;38563;54.258;12.574;2023-02-16T05:24:47;0.00;;;0.00;;
13597;SDS011;38563;54.258;12.574;2023-02-16T05:27:15;0.00;;;0.00;;
13597;SDS011;38563;54.258;12.574;2023-02-16T05:29:43;0.00;;;0.00;;
13597;SDS011;38563;54.258;12.574;2023-02-16T05:32:11;0.00;;;0.00;;
13597;SDS011;38563;54.258;12.574;2023-02-16T05:34:39;0.00;;;0.00;;
13597;SDS011;38563;54.258;12.574;2023-02-16T05:37:06;0.00;;;0.00;;
13597;SDS011;38563;54.258;12.574;2023-02-16T05:39:32;0.00;;;0.00;;
13597;SDS011;38563;54.258;12.574;2023-02-16T05:41:59;0.00;;;0.00;;
13597;SDS011;38563;54.258;12.574;2023-02-16T05:44:26;0.00;;;0.00;;
13597;SDS011;38563;54.258;12.574;2023-02-16T05:46:53;0.00;;;0.00;;
13597;SDS011;38563;54.258;12.574;2023-02-16T05:49:21;0.00;;;0.00;;
13597;SDS011;38563;54.258;12.574;2023-02-16T05:51:48;0.00;;;0.00;;
13597;SDS011;38563;54.258;12.574;2023-02-16T05:54:15;0.00;;;0.00;;
13597;SDS011;38563;54.258;12.574;2023-02-16T05:56:43;0.00;;;0.00;;
13597;SDS011;38563;54.258;12.574;2023-02-16T05:59:10;0.00;;;0.00;;
13597;SDS011;38563;54.258;12.574;2023-02-16T06:01:37;0.00;;;0.00;;
13597;SDS011;38563;54.258;12.574;2023-02-16T06:04:05;0.00;;;0.00;;
13597;SDS011;38563;54.258;12.574;2023-02-16T06:06:35;0.00;;;0.00;;
13597;SDS011;38563;54.258;12.574;2023-02-16T06:09:02;0.00;;;0.00;;
13597;SDS011;38563;54.258;12.574;2023-02-16T06:11:29;0.00;;;0.00;;
13597;SDS011;38563;54.258;12.574;2023-02-16T06:14:02;0.00;;;0.00;;
13597;SDS011;38563;54.258;12.574;2023-02-16T06:16:33;0.00;;;0.00;;
13597;SDS011;38563;54.258;12.574;2023-02-16T06:19:02;0.00;;;0.00;;
13597;SDS011;38563;54.258;12.574;2023-02-16T06:21:30;0.00;;;0.00;;
13597;SDS011;38563;54.258;12.574;2023-02-16T06:23:59;0.00;;;0.00;;
13597;SDS011;38563;54.258;12.574;2023-02-16T06:26:26;0.00;;;0.00;;
13597;SDS011;38563;54.258;12.574;2023-02-16T06:28:53;0.00;;;0.00;;
13597;SDS011;38563;54.258;12.574;2023-02-16T06:31:22;0.00;;;0.00;;
13597;SDS011;38563;54.258;12.574;2023-02-16T06:33:49;0.00;;;0.00;;
13597;SDS011;38563;54.258;12.574;2023-02-16T06:36:16;0.00;;;0.00;;
13597;SDS011;38563;54.258;12.574;2023-02-16T06:38:43;0.00;;;0.00;;
13597;SDS011;38563;54.258;12.574;2023-02-16T06:41:12;0.00;;;0.00;;
13597;SDS011;38563;54.258;12.574;2023-02-16T06:43:55;0.00;;;0.00;;
13597;SDS011;38563;54.258;12.574;2023-02-16T06:46:22;0.00;;;0.00;;
13597;SDS011;38563;54.258;12.574;2023-02-16T06:48:49;0.00;;;0.00;;
13597;SDS011;38563;54.258;12.574;2023-02-16T06:51:16;0.00;;;0.00;;
13597;SDS011;38563;54.258;12.574;2023-02-16T06:53:43;0.00;;;0.00;;
13597;SDS011;38563;54.258;12.574;2023-02-16T06:56:10;0.00;;;0.00;;
13597;SDS011;38563;54.258;12.574;2023-02-16T06:58:38;0.00;;;0.00;;
13597;SDS011;38563;54.258;12.574;2023-02-16T07:03:34;0.00;;;0.00;;
13597;SDS011;38563;54.258;12.574;2023-02-16T07:06:01;0.00;;;0.00;;
13597;SDS011;38563;54.258;12.574;2023-02-16T07:08:28;0.00;;;0.00;;
13597;SDS011;38563;54.258;12.574;2023-02-16T07:10:55;0.00;;;0.00;;
13597;SDS011;38563;54.258;12.574;2023-02-16T07:13:23;0.00;;;0.00;;
13597;SDS011;38563;54.258;12.574;2023-02-16T07:15:50;0.00;;;0.00;;
13597;SDS011;38563;54.258;12.574;2023-02-16T07:18:16;0.00;;;0.00;;
13597;SDS011;38563;54.258;12.574;2023-02-16T07:20:43;0.00;;;0.00;;
13597;SDS011;38563;54.258;12.574;2023-02-16T07:23:10;0.00;;;0.00;;
13597;SDS011;38563;54.258;12.574;2023-02-16T07:25:36;0.00;;;0.00;;
13597;SDS011;38563;54.258;12.574;2023-02-16T07:28:03;0.00;;;0.00;;
13597;SDS011;38563;54.258;12.574;2023-02-16T07:30:31;0.00;;;0.00;;
13597;SDS011;38563;54.258;12.574;2023-02-16T07:32:58;0.00;;;0.00;;
13597;SDS011;38563;54.258;12.574;2023-02-16T07:35:24;0.00;;;0.00;;
13597;SDS011;38563;54.258;12.574;2023-02-16T07:37:51;0.00;;;0.00;;
13597;SDS011;38563;54.258;12.574;2023-02-16T07:40:18;0.00;;;0.00;;
13597;SDS011;38563;54.258;12.574;2023-02-16T07:42:45;0.00;;;0.00;;
13597;SDS011;38563;54.258;12.574;2023-02-16T07:45:12;0.00;;;0.00;;
13597;SDS011;38563;54.258;12.574;2023-02-16T07:47:40;0.00;;;0.00;;
13597;SDS011;38563;54.258;12.574;2023-02-16T07:50:07;0.00;;;0.00;;
13597;SDS011;38563;54.258;12.574;2023-02-16T07:52:34;0.00;;;0.00;;
13597;SDS011;38563;54.258;12.574;2023-02-16T07:55:01;0.00;;;0.00;;
13597;SDS011;38563;54.258;12.574;2023-02-16T07:57:28;0.00;;;0.00;;
13597;SDS011;38563;54.258;12.574;2023-02-16T07:59:55;0.00;;;0.00;;
13597;SDS011;38563;54.258;12.574;2023-02-16T08:02:22;0.00;;;0.00;;
13597;SDS011;38563;54.258;12.574;2023-02-16T08:04:52;0.00;;;0.00;;
13597;SDS011;38563;54.258;12.574;2023-02-16T08:07:19;0.00;;;0.00;;
13597;SDS011;38563;54.258;12.574;2023-02-16T08:09:46;0.00;;;0.00;;
13597;SDS011;38563;54.258;12.574;2023-02-16T08:12:14;0.00;;;0.00;;
13597;SDS011;38563;54.258;12.574;2023-02-16T08:14:42;0.00;;;0.00;;
13597;SDS011;38563;54.258;12.574;2023-02-16T08:17:10;0.00;;;0.00;;
13597;SDS011;38563;54.258;12.574;2023-02-16T08:19:38;0.00;;;0.00;;
13597;SDS011;38563;54.258;12.574;2023-02-16T08:22:06;0.00;;;0.00;;
13597;SDS011;38563;54.258;12.574;2023-02-16T08:24:34;0.00;;;0.00;;
13597;SDS011;38563;54.258;12.574;2023-02-16T08:27:01;0.00;;;0.00;;
13597;SDS011;38563;54.258;12.574;2023-02-16T08:29:30;0.00;;;0.00;;
13597;SDS011;38563;54.258;12.574;2023-02-16T08:31:57;0.00;;;0.00;;
13597;SDS011;38563;54.258;12.574;2023-02-16T08:34:23;0.00;;;0.00;;
13597;SDS011;38563;54.258;12.574;2023-02-16T08:36:51;0.00;;;0.00;;
13597;SDS011;38563;54.258;12.574;2023-02-16T08:39:22;0.00;;;0.00;;
13597;SDS011;38563;54.258;12.574;2023-02-16T08:41:50;0.00;;;0.00;;
13597;SDS011;38563;54.258;12.574;2023-02-16T08:44:19;0.00;;;0.00;;
13597;SDS011;38563;54.258;12.574;2023-02-16T08:46:47;0.00;;;0.00;;
13597;SDS011;38563;54.258;12.574;2023-02-16T08:49:15;0.00;;;0.00;;
13597;SDS011;38563;54.258;12.574;2023-02-16T08:51:46;0.00;;;0.00;;
13597;SDS011;38563;54.258;12.574;2023-02-16T08:54:16;0.00;;;0.00;;
13597;SDS011;38563;54.258;12.574;2023-02-16T08:56:45;0.00;;;0.00;;
13597;SDS011;38563;54.258;12.574;2023-02-16T08:59:14;0.00;;;0.00;;
13597;SDS011;38563;54.258;12.574;2023-02-16T09:01:42;0.00;;;0.00;;
13597;SDS011;38563;54.258;12.574;2023-02-16T09:04:10;0.00;;;0.00;;
13597;SDS011;38563;54.258;12.574;2023-02-16T09:06:37;0.00;;;0.00;;
13597;SDS011;38563;54.258;12.574;2023-02-16T09:09:05;0.00;;;0.00;;
13597;SDS011;38563;54.258;12.574;2023-02-16T09:11:33;0.00;;;0.00;;
13597;SDS011;38563;54.258;12.574;2023-02-16T09:14:02;0.00;;;0.00;;
13597;SDS011;38563;54.258;12.574;2023-02-16T09:16:30;0.00;;;0.00;;
13597;SDS011;38563;54.258;12.574;2023-02-16T09:18:59;0.00;;;0.00;;
13597;SDS011;38563;54.258;12.574;2023-02-16T09:21:27;0.00;;;0.00;;
13597;SDS011;38563;54.258;12.574;2023-02-16T09:23:56;0.00;;;0.00;;
13597;SDS011;38563;54.258;12.574;2023-02-16T09:26:25;0.00;;;0.00;;
13597;SDS011;38563;54.258;12.574;2023-02-16T09:28:53;0.00;;;0.00;;
13597;SDS011;38563;54.258;12.574;2023-02-16T09:31:22;0.00;;;0.00;;
13597;SDS011;38563;54.258;12.574;2023-02-16T09:33:51;0.00;;;0.00;;
13597;SDS011;38563;54.258;12.574;2023-02-16T09:36:20;0.00;;;0.00;;
13597;SDS011;38563;54.258;12.574;2023-02-16T09:38:47;0.00;;;0.00;;
13597;SDS011;38563;54.258;12.574;2023-02-16T09:41:17;0.00;;;0.00;;
13597;SDS011;38563;54.258;12.574;2023-02-16T09:43:53;0.00;;;0.00;;
13597;SDS011;38563;54.258;12.574;2023-02-16T09:46:24;0.00;;;0.00;;
13597;SDS011;38563;54.258;12.574;2023-02-16T09:48:52;0.00;;;0.00;;
13597;SDS011;38563;54.258;12.574;2023-02-16T09:51:19;0.00;;;0.00;;
13597;SDS011;38563;54.258;12.574;2023-02-16T09:53:51;0.00;;;0.00;;
13597;SDS011;38563;54.258;12.574;2023-02-16T09:56:25;0.00;;;0.00;;
13597;SDS011;38563;54.258;12.574;2023-02-16T09:58:57;0.00;;;0.00;;
13597;SDS011;38563;54.258;12.574;2023-02-16T10:01:33;0.00;;;0.00;;
13597;SDS011;38563;54.258;12.574;2023-02-16T10:04:11;0.00;;;0.00;;
13597;SDS011;38563;54.258;12.574;2023-02-16T10:06:52;0.00;;;0.00;;
13597;SDS011;38563;54.258;12.574;2023-02-16T10:09:25;0.10;;;0.10;;
13597;SDS011;38563;54.258;12.574;2023-02-16T10:11:55;0.00;;;0.00;;
13597;SDS011;38563;54.258;12.574;2023-02-16T10:14:26;0.00;;;0.00;;
13597;SDS011;38563;54.258;12.574;2023-02-16T10:17:02;0.00;;;0.00;;
13597;SDS011;38563;54.258;12.574;2023-02-16T10:19:36;0.00;;;0.00;;
13597;SDS011;38563;54.258;12.574;2023-02-16T10:22:06;0.00;;;0.00;;
13597;SDS011;38563;54.258;12.574;2023-02-16T10:24:41;0.00;;;0.00;;
13597;SDS011;38563;54.258;12.574;2023-02-16T10:27:14;0.00;;;0.00;;
13597;SDS011;38563;54.258;12.574;2023-02-16T10:29:41;0.00;;;0.00;;
13597;SDS011;38563;54.258;12.574;2023-02-16T10:32:13;0.00;;;0.00;;
13597;SDS011;38563;54.258;12.574;2023-02-16T10:34:47;0.00;;;0.00;;
13597;SDS011;38563;54.258;12.574;2023-02-16T10:37:18;0.00;;;0.00;;
13597;SDS011;38563;54.258;12.574;2023-02-16T10:39:59;0.00;;;0.00;;
13597;SDS011;38563;54.258;12.574;2023-02-16T10:42:45;0.00;;;0.00;;
13597;SDS011;38563;54.258;12.574;2023-02-16T10:45:19;0.00;;;0.00;;
13597;SDS011;38563;54.258;12.574;2023-02-16T10:47:51;0.00;;;0.00;;
13597;SDS011;38563;54.258;12.574;2023-02-16T10:50:20;0.00;;;0.00;;
13597;SDS011;38563;54.258;12.574;2023-02-16T10:52:50;0.10;;;0.10;;
13597;SDS011;38563;54.258;12.574;2023-02-16T10:55:21;0.10;;;0.10;;
13597;SDS011;38563;54.258;12.574;2023-02-16T10:57:52;0.10;;;0.10;;
13597;SDS011;38563;54.258;12.574;2023-02-16T11:00:22;0.00;;;0.00;;
13597;SDS011;38563;54.258;12.574;2023-02-16T11:02:56;0.00;;;0.00;;
13597;SDS011;38563;54.258;12.574;2023-02-16T11:05:34;0.00;;;0.00;;
13597;SDS011;38563;54.258;12.574;2023-02-16T11:08:03;0.10;;;0.10;;
13597;SDS011;38563;54.258;12.574;2023-02-16T11:10:39;0.00;;;0.00;;
13597;SDS011;38563;54.258;12.574;2023-02-16T11:13:19;0.00;;;0.00;;
13597;SDS011;38563;54.258;12.574;2023-02-16T11:15:51;0.00;;;0.00;;
13597;SDS011;38563;54.258;12.574;2023-02-16T11:18:32;0.10;;;0.10;;
13597;SDS011;38563;54.258;12.574;2023-02-16T11:21:02;0.10;;;0.10;;
13597;SDS011;38563;54.258;12.574;2023-02-16T11:23:30;0.03;;;0.03;;
13597;SDS011;38563;54.258;12.574;2023-02-16T11:26:00;0.00;;;0.00;;
13597;SDS011;38563;54.258;12.574;2023-02-16T11:28:31;0.10;;;0.10;;
13597;SDS011;38563;54.258;12.574;2023-02-16T11:31:01;0.10;;;0.10;;
13597;SDS011;38563;54.258;12.574;2023-02-16T11:33:42;0.10;;;0.10;;
13597;SDS011;38563;54.258;12.574;2023-02-16T11:36:23;0.10;;;0.10;;
13597;SDS011;38563;54.258;12.574;2023-02-16T11:38:58;0.10;;;0.10;;
13597;SDS011;38563;54.258;12.574;2023-02-16T11:41:27;0.07;;;0.07;;
13597;SDS011;38563;54.258;12.574;2023-02-16T11:43:55;0.10;;;0.10;;
13597;SDS011;38563;54.258;12.574;2023-02-16T11:46:22;0.00;;;0.00;;
13597;SDS011;38563;54.258;12.574;2023-02-16T11:48:51;0.10;;;0.10;;
13597;SDS011;38563;54.258;12.574;2023-02-16T11:51:28;0.10;;;0.10;;
13597;SDS011;38563;54.258;12.574;2023-02-16T11:53:58;0.10;;;0.10;;
13597;SDS011;38563;54.258;12.574;2023-02-16T11:56:28;0.00;;;0.00;;
13597;SDS011;38563;54.258;12.574;2023-02-16T11:59:03;0.00;;;0.00;;
13597;SDS011;38563;54.258;12.574;2023-02-16T12:01:37;0.10;;;0.10;;
13597;SDS011;38563;54.258;12.574;2023-02-16T12:04:37;0.10;;;0.10;;
13597;SDS011;38563;54.258;12.574;2023-02-16T12:07:13;0.10;;;0.10;;
13597;SDS011;38563;54.258;12.574;2023-02-16T12:09:52;0.17;;;0.17;;
13597;SDS011;38563;54.258;12.574;2023-02-16T12:12:29;0.10;;;0.10;;
13597;SDS011;38563;54.258;12.574;2023-02-16T12:15:01;0.10;;;0.10;;
13597;SDS011;38563;54.258;12.574;2023-02-16T12:17:42;0.00;;;0.00;;
13597;SDS011;38563;54.258;12.574;2023-02-16T12:23:11;0.10;;;0.10;;
13597;SDS011;38563;54.258;12.574;2023-02-16T12:25:49;0.10;;;0.10;;
13597;SDS011;38563;54.258;12.574;2023-02-16T12:28:26;0.00;;;0.00;;
13597;SDS011;38563;54.258;12.574;2023-02-16T12:31:06;0.00;;;0.00;;
13597;SDS011;38563;54.258;12.574;2023-02-16T12:33:44;0.07;;;0.07;;
13597;SDS011;38563;54.258;12.574;2023-02-16T12:36:22;0.00;;;0.00;;
13597;SDS011;38563;54.258;12.574;2023-02-16T12:39:11;0.00;;;0.00;;
13597;SDS011;38563;54.258;12.574;2023-02-16T12:41:52;0.00;;;0.00;;
13597;SDS011;38563;54.258;12.574;2023-02-16T12:44:31;0.00;;;0.00;;
13597;SDS011;38563;54.258;12.574;2023-02-16T12:47:01;0.00;;;0.00;;
13597;SDS011;38563;54.258;12.574;2023-02-16T12:49:31;0.00;;;0.00;;
13597;SDS011;38563;54.258;12.574;2023-02-16T12:52:09;0.00;;;0.00;;
13597;SDS011;38563;54.258;12.574;2023-02-16T12:54:41;0.00;;;0.00;;
13597;SDS011;38563;54.258;12.574;2023-02-16T12:57:12;0.00;;;0.00;;
13597;SDS011;38563;54.258;12.574;2023-02-16T12:59:43;0.10;;;0.10;;
13597;SDS011;38563;54.258;12.574;2023-02-16T13:04:55;0.10;;;0.10;;
13597;SDS011;38563;54.258;12.574;2023-02-16T13:07:33;0.00;;;0.00;;
13597;SDS011;38563;54.258;12.574;2023-02-16T13:10:11;0.00;;;0.00;;
13597;SDS011;38563;54.258;12.574;2023-02-16T13:12:46;0.10;;;0.10;;
13597;SDS011;38563;54.258;12.574;2023-02-16T13:15:16;0.10;;;0.10;;
13597;SDS011;38563;54.258;12.574;2023-02-16T13:17:47;0.00;;;0.00;;
13597;SDS011;38563;54.258;12.574;2023-02-16T13:20:18;0.07;;;0.07;;
13597;SDS011;38563;54.258;12.574;2023-02-16T13:22:52;0.00;;;0.00;;
13597;SDS011;38563;54.258;12.574;2023-02-16T13:25:40;0.00;;;0.00;;
13597;SDS011;38563;54.258;12.574;2023-02-16T13:28:30;0.00;;;0.00;;
13597;SDS011;38563;54.258;12.574;2023-02-16T13:31:12;0.10;;;0.10;;
13597;SDS011;38563;54.258;12.574;2023-02-16T13:33:50;0.00;;;0.00;;
13597;SDS011;38563;54.258;12.574;2023-02-16T13:39:43;0.07;;;0.07;;
13597;SDS011;38563;54.258;12.574;2023-02-16T13:42:31;0.10;;;0.10;;
13597;SDS011;38563;54.258;12.574;2023-02-16T13:45:19;0.10;;;0.10;;
13597;SDS011;38563;54.258;12.574;2023-02-16T13:47:48;0.10;;;0.10;;
13597;SDS011;38563;54.258;12.574;2023-02-16T13:50:26;0.00;;;0.00;;
13597;SDS011;38563;54.258;12.574;2023-02-16T13:52:56;0.00;;;0.00;;
13597;SDS011;38563;54.258;12.574;2023-02-16T13:55:35;0.10;;;0.10;;
13597;SDS011;38563;54.258;12.574;2023-02-16T13:58:04;0.10;;;0.10;;
13597;SDS011;38563;54.258;12.574;2023-02-16T14:00:35;0.00;;;0.00;;
13597;SDS011;38563;54.258;12.574;2023-02-16T14:03:09;0.00;;;0.00;;
13597;SDS011;38563;54.258;12.574;2023-02-16T14:05:39;0.00;;;0.00;;
13597;SDS011;38563;54.258;12.574;2023-02-16T14:08:09;0.00;;;0.00;;
13597;SDS011;38563;54.258;12.574;2023-02-16T14:11:02;0.00;;;0.00;;
13597;SDS011;38563;54.258;12.574;2023-02-16T14:13:31;0.00;;;0.00;;
13597;SDS011;38563;54.258;12.574;2023-02-16T14:16:10;0.00;;;0.00;;
13597;SDS011;38563;54.258;12.574;2023-02-16T14:18:53;0.10;;;0.10;;
13597;SDS011;38563;54.258;12.574;2023-02-16T14:21:26;0.00;;;0.00;;
13597;SDS011;38563;54.258;12.574;2023-02-16T14:23:57;0.10;;;0.10;;
13597;SDS011;38563;54.258;12.574;2023-02-16T14:26:28;0.00;;;0.00;;
13597;SDS011;38563;54.258;12.574;2023-02-16T14:31:44;0.00;;;0.00;;
13597;SDS011;38563;54.258;12.574;2023-02-16T14:34:18;0.00;;;0.00;;
13597;SDS011;38563;54.258;12.574;2023-02-16T14:40:12;0.00;;;0.00;;
13597;SDS011;38563;54.258;12.574;2023-02-16T14:42:50;0.00;;;0.00;;
13597;SDS011;38563;54.258;12.574;2023-02-16T14:45:36;0.10;;;0.10;;
13597;SDS011;38563;54.258;12.574;2023-02-16T14:51:36;0.00;;;0.00;;
13597;SDS011;38563;54.258;12.574;2023-02-16T14:57:27;0.10;;;0.10;;
13597;SDS011;38563;54.258;12.574;2023-02-16T15:00:03;0.10;;;0.10;;
13597;SDS011;38563;54.258;12.574;2023-02-16T15:02:38;0.07;;;0.07;;
13597;SDS011;38563;54.258;12.574;2023-02-16T15:05:14;0.00;;;0.00;;
13597;SDS011;38563;54.258;12.574;2023-02-16T15:07:42;0.00;;;0.00;;
13597;SDS011;38563;54.258;12.574;2023-02-16T15:10:14;0.07;;;0.07;;
13597;SDS011;38563;54.258;12.574;2023-02-16T15:12:46;0.00;;;0.00;;
13597;SDS011;38563;54.258;12.574;2023-02-16T15:15:18;0.00;;;0.00;;
13597;SDS011;38563;54.258;12.574;2023-02-16T15:17:51;0.00;;;0.00;;
13597;SDS011;38563;54.258;12.574;2023-02-16T15:20:21;0.07;;;0.07;;
13597;SDS011;38563;54.258;12.574;2023-02-16T15:22:52;0.00;;;0.00;;
13597;SDS011;38563;54.258;12.574;2023-02-16T15:25:21;0.00;;;0.00;;
13597;SDS011;38563;54.258;12.574;2023-02-16T15:27:51;0.00;;;0.00;;
13597;SDS011;38563;54.258;12.574;2023-02-16T15:30:24;0.00;;;0.00;;